EmailTwitter


Surface observations / Quebec / CYQB (71714)

Regions: Quebec | Canada | USA | Europe | France | UK | Elsewhere
Station
Display
Info & Location for CYQB (71714) | Help decoding METAR

Weather Conditions observed on 2018/08/15 at 22:00 UTC at QUEBEC A, QB (CYQB)

Sky conditions: variable clouds.

Temperature: 24.0 Celsius.

Dewpoint: 18.0 Celsius.

Relative Humidity: 69%

Humidex: 30.

Winds: West at 17 km/h or 9 knots.

Mean Sea level Pressure: 100.94 kilopascals.

Altimeter Setting (QNH): 100.91 kilopascals or 29.80 inches of mercury.

Horizontal visibility: 15.00 statute miles or 24.00 kilometers.

Coded METAR:

CYQB 152200Z 27009KT 15SM FEW025 SCT062 24/18 A2980 RMK CU1SC2 HAZY SLP094

DENSITY ALT 1500FT=